»·PEaware :: N777KS KSMO-KSBA

N777KS :: KSMO-KSBA

FLIGHT INFORMATION

Flight Status: Arrived
Operator: Privately registered:
United States
More flights under this callsign
Pilot: Kevin S. (26378)
Aircraft: SOCATA TBM-900
(TBM9)
More flights by this aircraft type
Origin: KSMO Santa Monica Mun
United States
Destination: KSBA Santa Barbara Mun
United States
More flights between these airports :: More routes between these airports
Route: +SMO V107 SADDE V299 VTU VTU282R KWANG
File this flight plan on PilotEdge
Remarks: SMOP38
Altitude:
(Current/Filed)
6,000ft
Speed:
(Current/Filed)
200kts
Departed: 16-Jan-20 09:09 PM
Arrived: 16-Jan-20 09:53 PM
Distance/Time
Traveled:
73nm/0:44
Distance/Time
To Go:
Arrived

Flight Plot

Page will automatically refresh every two minutes.


Map Options




Map Legend


Flown Route
Filed Route
Departure Airport
Arrival Airport
Navaid (VOR, NDB)
Fix

Horizontal Profiles

Position Reports

Time Latitude Longitude Heading Altitude Ground
Speed
16-Jan-20 20:42 34.018414 -118.446795 315 135ft 0kts
16-Jan-20 20:43 34.018414 -118.446795 315 135ft 0kts
16-Jan-20 20:44 34.018414 -118.446795 315 135ft 0kts
16-Jan-20 20:45 34.018414 -118.446795 315 135ft 0kts
16-Jan-20 20:45 34.018414 -118.446795 315 135ft 0kts
16-Jan-20 20:47 34.018414 -118.446795 315 135ft 0kts
16-Jan-20 20:48 34.018414 -118.446795 315 135ft 0kts
16-Jan-20 20:48 34.018414 -118.446795 315 135ft 0kts
16-Jan-20 20:50 34.018414 -118.446795 315 135ft 0kts
16-Jan-20 20:50 34.018414 -118.446795 315 135ft 0kts
16-Jan-20 20:51 34.018414 -118.446795 315 135ft 0kts
16-Jan-20 20:53 34.018414 -118.446796 315 135ft 0kts
16-Jan-20 20:53 34.018414 -118.446796 315 135ft 0kts
16-Jan-20 20:54 34.018414 -118.446796 315 135ft 0kts
16-Jan-20 20:55 34.018414 -118.446796 315 135ft 0kts
16-Jan-20 20:56 34.018414 -118.446796 315 135ft 0kts
16-Jan-20 20:57 34.018414 -118.446795 315 135ft 0kts
16-Jan-20 20:58 34.018414 -118.446796 315 135ft 0kts
16-Jan-20 20:59 34.018414 -118.446796 315 135ft 0kts
16-Jan-20 21:00 34.018414 -118.446795 315 135ft 0kts
16-Jan-20 21:01 34.018414 -118.446795 315 135ft 0kts
16-Jan-20 21:02 34.018414 -118.446796 315 135ft 0kts
16-Jan-20 21:03 34.018414 -118.446796 315 135ft 0kts
16-Jan-20 21:04 34.019916 -118.445578 353 135ft 0kts
16-Jan-20 21:05 34.019916 -118.445578 353 135ft 0kts
16-Jan-20 21:06 34.019995 -118.445591 351 135ft 0kts
16-Jan-20 21:07 34.019995 -118.445591 351 135ft 0kts
16-Jan-20 21:08 34.012884 -118.454751 221 378ft 114kts
16-Jan-20 21:09 33.989392 -118.475329 224 2659ft 97kts
16-Jan-20 21:10 33.980745 -118.493203 273 4774ft 39kts
16-Jan-20 21:11 33.983895 -118.509852 277 6128ft 97kts
16-Jan-20 21:12 33.991356 -118.551313 276 6026ft 136kts
16-Jan-20 21:13 34.001655 -118.595909 285 6020ft 141kts
16-Jan-20 21:14 34.015221 -118.640232 279 6019ft 140kts
16-Jan-20 21:15 34.026611 -118.684726 276 6028ft 143kts
16-Jan-20 21:16 34.037841 -118.730203 275 6012ft 126kts
16-Jan-20 21:17 34.047052 -118.768353 277 5999ft 117kts
16-Jan-20 21:18 34.056363 -118.806444 275 5999ft 119kts
16-Jan-20 21:19 34.065773 -118.845252 275 5998ft 120kts
16-Jan-20 21:20 34.076213 -118.883777 281 6026ft 122kts
16-Jan-20 21:21 34.092031 -118.927088 283 6030ft 149kts
16-Jan-20 21:22 34.109191 -118.973156 283 6025ft 150kts
16-Jan-20 21:23 34.126210 -119.018860 283 6025ft 150kts
16-Jan-20 21:24 34.143418 -119.065130 283 6025ft 150kts
16-Jan-20 21:25 34.160432 -119.110917 283 6015ft 151kts
16-Jan-20 21:26 34.179483 -119.162542 284 5966ft 186kts
16-Jan-20 21:27 34.200721 -119.219786 285 6013ft 179kts
16-Jan-20 21:28 34.221125 -119.275171 286 6016ft 190kts
16-Jan-20 21:29 34.244563 -119.338357 287 6004ft 184kts
16-Jan-20 21:30 34.263254 -119.389271 285 5660ft 176kts
16-Jan-20 21:31 34.284634 -119.447483 287 4940ft 200kts
16-Jan-20 21:32 34.307797 -119.510620 287 4051ft 209kts
16-Jan-20 21:33 34.316668 -119.572832 272 3993ft 180kts
16-Jan-20 21:34 34.324789 -119.632050 272 3996ft 178kts
16-Jan-20 21:35 34.333036 -119.690231 272 3998ft 182kts
16-Jan-20 21:36 34.341632 -119.751683 272 3999ft 186kts
16-Jan-20 21:37 34.348963 -119.813908 272 3999ft 187kts
16-Jan-20 21:38 34.356090 -119.876557 272 3999ft 187kts
16-Jan-20 21:39 34.363209 -119.939061 272 3999ft 187kts
16-Jan-20 21:40 34.370441 -120.004216 272 4010ft 212kts
16-Jan-20 21:41 34.373453 -120.076863 266 3169ft 221kts
16-Jan-20 21:42 34.372121 -120.139836 266 3039ft 170kts
16-Jan-20 21:43 34.367489 -120.194894 289 3019ft 156kts
16-Jan-20 21:44 34.399530 -120.182732 55 3035ft 163kts
16-Jan-20 21:45 34.418404 -120.133411 83 3028ft 164kts
16-Jan-20 21:46 34.421153 -120.078279 84 3034ft 163kts
16-Jan-20 21:47 34.423233 -120.021314 84 2640ft 175kts
16-Jan-20 21:48 34.424378 -119.965058 84 1917ft 160kts
16-Jan-20 21:49 34.426847 -119.916694 87 946ft 148kts
16-Jan-20 21:50 34.427305 -119.882073 89 602ft 104kts
16-Jan-20 21:51 34.427540 -119.854594 89 40ft 64kts
16-Jan-20 21:52 34.428502 -119.845969 52 15ft 1kts

Navigation Log

Ident Type
Flight plan parsing failed, navigation log unavailable